Time;durP1;ratioP1;P1;durP2;ratioP2;P2;SDS_P1;SDS_P2;PMS_P1;PMS_P2;Temp;Humidity;BMP_temperature;BMP_pressure;BME280_temperature;BME280_humidity;BME280_pressure;Samples;Min_cycle;Max_cycle;Signal;HPM_P1;HPM_P2
2022/01/10 00:00:49;;;;;;;3.55;1.60;;;7.80;97.60;;;;;;5003927;28;20101;-49
2022/01/10 00:03:15;;;;;;;5.50;1.77;;;7.80;97.60;;;;;;5003475;28;20045;-49
2022/01/10 00:05:41;;;;;;;4.78;2.03;;;7.80;97.60;;;;;;5001983;28;20038;-50
2022/01/10 00:08:07;;;;;;;3.33;2.17;;;7.80;97.60;;;;;;5000645;28;20030;-49
2022/01/10 00:10:33;;;;;;;1.90;1.65;;;7.80;97.50;;;;;;5001537;28;20026;-49
2022/01/10 00:12:59;;;;;;;10.43;3.53;;;7.80;97.60;;;;;;5004102;28;20070;-49
2022/01/10 00:15:25;;;;;;;4.18;1.95;;;7.80;97.50;;;;;;5004580;28;20064;-49
2022/01/10 00:17:50;;;;;;;3.03;2.35;;;7.80;97.50;;;;;;4999868;28;20116;-49
2022/01/10 00:20:19;;;;;;;6.03;2.38;;;7.80;97.60;;;;;;4998003;28;20528;-49
2022/01/10 00:22:47;;;;;;;8.63;2.47;;;7.80;97.50;;;;;;5003209;28;20057;-49
2022/01/10 00:25:18;;;;;;;5.13;2.58;;;7.80;97.50;;;;;;4997526;28;20026;-49
2022/01/10 00:27:45;;;;;;;4.60;2.45;;;7.80;97.50;;;;;;5004202;28;20096;-49
2022/01/10 00:30:11;;;;;;;5.07;2.45;;;7.80;97.50;;;;;;5000635;28;20114;-49
2022/01/10 00:32:39;;;;;;;4.15;2.47;;;7.80;97.50;;;;;;4998733;28;20420;-49
2022/01/10 00:35:05;;;;;;;4.18;2.13;;;7.80;97.50;;;;;;4999472;28;20026;-49
2022/01/10 00:37:31;;;;;;;4.95;2.30;;;7.80;97.50;;;;;;5000040;28;20481;-49
2022/01/10 00:39:57;;;;;;;2.78;2.22;;;7.80;97.90;;;;;;5006539;28;20045;-49
2022/01/10 00:42:23;;;;;;;6.50;2.38;;;7.80;97.50;;;;;;5000691;28;20042;-49
2022/01/10 00:44:53;;;;;;;8.75;2.63;;;7.80;97.60;;;;;;5002663;28;20423;-49
2022/01/10 00:47:19;;;;;;;;;;;7.80;97.50;;;;;;5009303;28;20068;-49
2022/01/10 00:49:45;;;;;;;6.53;2.00;;;7.80;97.50;;;;;;5001962;28;20337;-49
2022/01/10 00:52:11;;;;;;;1.83;1.30;;;7.70;97.50;;;;;;4999598;28;20042;-49
2022/01/10 00:54:37;;;;;;;1.75;1.20;;;7.70;97.50;;;;;;5005662;28;20022;-49
2022/01/10 00:57:03;;;;;;;2.28;1.50;;;7.80;97.60;;;;;;5005544;28;20076;-49
2022/01/10 00:59:30;;;;;;;6.68;1.67;;;7.70;97.50;;;;;;5000169;28;20105;-49
2022/01/10 01:01:56;;;;;;;2.15;1.50;;;7.70;97.50;;;;;;4999806;28;20046;-49
2022/01/10 01:04:21;;;;;;;2.67;1.40;;;7.70;97.50;;;;;;5004128;28;20523;-49
2022/01/10 01:06:48;;;;;;;1.05;0.95;;;7.70;97.60;;;;;;5004656;28;20060;-49
2022/01/10 01:09:17;;;;;;;1.25;1.10;;;7.70;97.60;;;;;;4999952;28;20067;-49
2022/01/10 01:14:37;;;;;;;2.45;1.13;;;7.70;97.50;;;;;;5003764;28;20031;-49
2022/01/10 01:17:13;;;;;;;4.07;1.58;;;7.70;97.50;;;;;;5004897;28;20443;-49
2022/01/10 01:25:11;;;;;;;5.35;2.42;;;7.70;97.50;;;;;;4999754;28;20089;-49
2022/01/10 01:27:37;;;;;;;4.40;1.63;;;7.70;97.50;;;;;;5000296;28;20045;-49
2022/01/10 01:30:06;;;;;;;2.67;1.50;;;7.70;97.50;;;;;;5002222;28;20021;-49
2022/01/10 01:32:32;;;;;;;2.45;1.45;;;7.70;97.50;;;;;;5001012;28;20377;-49
2022/01/10 01:35:04;;;;;;;2.50;1.52;;;7.70;97.50;;;;;;5000541;28;20022;-49
2022/01/10 01:37:30;;;;;;;2.67;1.55;;;7.70;97.50;;;;;;4996479;28;20022;-49
2022/01/10 01:39:56;;;;;;;8.05;1.75;;;7.70;97.50;;;;;;5003230;28;20471;-49
2022/01/10 01:45:00;;;;;;;4.80;1.88;;;7.70;97.50;;;;;;5001880;28;20064;-49
2022/01/10 01:47:26;;;;;;;7.68;1.98;;;7.70;97.50;;;;;;4998422;28;20072;-49
2022/01/10 01:49:52;;;;;;;6.85;1.92;;;7.70;97.50;;;;;;5003089;28;20315;-50
2022/01/10 01:52:17;;;;;;;4.05;1.63;;;7.70;97.50;;;;;;4997441;28;20038;-49
2022/01/10 01:54:43;;;;;;;7.30;1.67;;;7.70;97.50;;;;;;5000519;28;20053;-49
2022/01/10 01:57:09;;;;;;;1.45;1.17;;;7.70;97.50;;;;;;5000405;28;20126;-49
2022/01/10 01:59:36;;;;;;;2.70;1.50;;;7.60;97.50;;;;;;5003294;28;20033;-49
2022/01/10 02:02:03;;;;;;;3.92;1.30;;;7.60;97.50;;;;;;4999187;28;20033;-49
2022/01/10 02:04:28;;;;;;;4.90;1.50;;;7.70;97.50;;;;;;5000610;28;20042;-49
2022/01/10 02:06:54;;;;;;;5.47;1.10;;;7.60;97.50;;;;;;4997864;28;20034;-49
2022/01/10 02:09:20;;;;;;;2.38;1.38;;;7.60;97.50;;;;;;4998227;28;20089;-49
2022/01/10 02:11:45;;;;;;;2.03;1.48;;;7.60;97.50;;;;;;5001889;28;20072;-49
2022/01/10 02:14:11;;;;;;;3.72;1.90;;;7.60;97.80;;;;;;5002290;28;20113;-49
2022/01/10 02:16:43;;;;;;;2.40;1.45;;;7.60;97.50;;;;;;4997178;28;20357;-49
2022/01/10 02:19:09;;;;;;;1.95;1.70;;;7.60;97.50;;;;;;5001990;28;20030;-49
2022/01/10 02:21:35;;;;;;;2.58;1.60;;;7.60;97.50;;;;;;4995938;28;20041;-49
2022/01/10 02:24:01;;;;;;;2.08;1.38;;;7.60;97.50;;;;;;4998972;28;20033;-49
2022/01/10 02:26:26;;;;;;;2.40;1.58;;;7.60;97.50;;;;;;5002255;28;20625;-49
2022/01/10 02:28:52;;;;;;;5.25;2.10;;;7.60;97.50;;;;;;5004291;28;20101;-49
2022/01/10 02:31:18;;;;;;;3.03;1.75;;;7.60;97.50;;;;;;4998643;28;20034;-49
2022/01/10 02:33:46;;;;;;;4.20;2.13;;;7.60;97.50;;;;;;4998214;28;20033;-49
2022/01/10 02:36:27;;;;;;;5.68;1.90;;;7.60;97.50;;;;;;4998782;28;20041;-49
2022/01/10 02:38:55;;;;;;;5.45;1.80;;;7.70;97.50;;;;;;5003390;28;20134;-49
2022/01/10 02:41:24;;;;;;;5.05;1.95;;;7.60;97.50;;;;;;5002393;28;20023;-50
2022/01/10 02:43:50;;;;;;;4.30;2.08;;;7.60;97.40;;;;;;5002999;28;20522;-49
2022/01/10 02:46:16;;;;;;;3.33;2.20;;;7.60;97.50;;;;;;4996881;28;20460;-49
2022/01/10 02:48:42;;;;;;;4.28;2.30;;;7.60;97.50;;;;;;5000038;28;20283;-49
2022/01/10 02:51:07;;;;;;;5.80;1.92;;;7.60;97.50;;;;;;4999087;28;20441;-49
2022/01/10 02:53:33;;;;;;;3.97;2.00;;;7.60;97.50;;;;;;5004313;28;20044;-49
2022/01/10 02:55:58;;;;;;;3.75;1.92;;;7.60;97.50;;;;;;5005603;28;20050;-49
2022/01/10 02:58:24;;;;;;;2.75;1.30;;;7.70;97.50;;;;;;4997995;28;20412;-49
2022/01/10 03:00:50;;;;;;;3.78;1.60;;;7.60;97.50;;;;;;5000540;28;20033;-50
2022/01/10 03:03:16;;;;;;;2.33;1.75;;;7.60;97.50;;;;;;5002825;28;20068;-49
2022/01/10 03:05:41;;;;;;;5.55;2.03;;;7.60;97.50;;;;;;5002634;28;20030;-49
2022/01/10 03:08:07;;;;;;;5.85;2.03;;;7.60;97.50;;;;;;5005182;28;20026;-49
2022/01/10 03:10:32;;;;;;;4.57;1.58;;;7.60;97.40;;;;;;5003222;28;20035;-49
2022/01/10 03:12:59;;;;;;;3.00;1.70;;;7.60;97.50;;;;;;4999099;28;20042;-49
2022/01/10 03:15:26;;;;;;;2.40;1.30;;;7.60;97.50;;;;;;5003213;28;20035;-49
2022/01/10 03:17:51;;;;;;;3.33;1.58;;;7.70;97.50;;;;;;5003203;28;20058;-49
2022/01/10 03:20:17;;;;;;;2.47;1.35;;;7.60;97.50;;;;;;5003524;28;20077;-48
2022/01/10 03:22:43;;;;;;;4.72;1.92;;;7.60;97.50;;;;;;5005795;28;20551;-49
2022/01/10 03:25:09;;;;;;;4.10;1.70;;;7.70;97.50;;;;;;5000259;28;20028;-49
2022/01/10 03:27:35;;;;;;;8.10;1.95;;;7.70;97.50;;;;;;5005914;28;20037;-49
2022/01/10 03:30:01;;;;;;;2.42;1.35;;;7.70;97.80;;;;;;5001908;28;20027;-49
2022/01/10 03:32:27;;;;;;;1.98;1.45;;;7.70;97.50;;;;;;5005289;28;20471;-49
2022/01/10 03:34:52;;;;;;;1.42;1.10;;;7.70;97.50;;;;;;5003412;28;20027;-49
2022/01/10 03:37:18;;;;;;;4.40;1.42;;;7.60;97.40;;;;;;5002935;28;20037;-49
2022/01/10 03:39:45;;;;;;;3.67;1.40;;;7.60;97.40;;;;;;5006004;28;20026;-49
2022/01/10 03:42:12;;;;;;;4.53;1.35;;;7.70;97.50;;;;;;5007586;28;20030;-49
2022/01/10 03:44:37;;;;;;;5.43;1.95;;;7.60;97.40;;;;;;5006113;28;20057;-49
2022/01/10 03:47:03;;;;;;;9.75;1.95;;;7.70;97.50;;;;;;5004993;28;20141;-49
2022/01/10 03:49:29;;;;;;;3.47;1.40;;;7.70;97.50;;;;;;5001500;28;20357;-49
2022/01/10 03:51:55;;;;;;;1.40;1.08;;;7.60;97.40;;;;;;5000993;28;20030;-49
2022/01/10 03:54:20;;;;;;;1.50;1.30;;;7.70;97.50;;;;;;5004430;28;20060;-49
2022/01/10 03:56:47;;;;;;;2.20;1.33;;;7.70;97.50;;;;;;5001028;28;20054;-49
2022/01/10 03:59:12;;;;;;;7.20;1.90;;;7.70;97.50;;;;;;4998757;28;20042;-49
2022/01/10 04:01:39;;;;;;;3.63;1.30;;;7.70;97.50;;;;;;5000460;28;20038;-49
2022/01/10 04:04:06;;;;;;;3.25;1.27;;;7.70;97.40;;;;;;5002339;28;20029;-49
2022/01/10 04:06:31;;;;;;;4.43;1.20;;;7.70;97.40;;;;;;4999286;28;20049;-49
2022/01/10 04:08:57;;;;;;;3.30;1.70;;;7.70;97.50;;;;;;5001690;28;20192;-49
2022/01/10 04:11:23;;;;;;;2.58;1.23;;;7.70;97.50;;;;;;5000061;28;20030;-49
2022/01/10 04:13:48;;;;;;;2.45;1.20;;;7.70;97.40;;;;;;5002209;28;20030;-49
2022/01/10 04:16:14;;;;;;;1.52;1.20;;;7.70;97.40;;;;;;5002905;28;20022;-49
2022/01/10 04:18:40;;;;;;;1.38;1.27;;;7.70;97.40;;;;;;5003940;28;20034;-49
2022/01/10 04:21:05;;;;;;;3.72;1.55;;;7.70;97.50;;;;;;5004399;28;20046;-49
2022/01/10 04:23:31;;;;;;;3.50;1.42;;;7.70;97.40;;;;;;5000671;28;20420;-49
2022/01/10 04:25:57;;;;;;;7.90;1.52;;;7.70;97.40;;;;;;5001708;28;20358;-49
2022/01/10 04:28:23;;;;;;;4.85;1.75;;;7.70;97.40;;;;;;5004695;28;20376;-48
2022/01/10 04:30:49;;;;;;;1.95;1.45;;;7.70;97.40;;;;;;5006115;28;20423;-49
2022/01/10 04:33:19;;;;;;;5.22;1.48;;;7.70;97.40;;;;;;5004502;28;20046;-49
2022/01/10 04:35:46;;;;;;;3.78;1.77;;;7.70;97.40;;;;;;5010132;28;20030;-49
2022/01/10 04:38:12;;;;;;;7.55;2.00;;;7.70;97.50;;;;;;5001718;28;20124;-49
2022/01/10 04:40:38;;;;;;;4.03;1.95;;;7.70;97.40;;;;;;5006739;28;20113;-49
2022/01/10 04:43:03;;;;;;;2.58;1.60;;;7.70;97.40;;;;;;5004965;28;20053;-49
2022/01/10 04:45:29;;;;;;;4.22;1.75;;;7.70;97.40;;;;;;5005179;28;20026;-48
2022/01/10 04:47:55;;;;;;;5.07;2.00;;;7.70;97.40;;;;;;5003597;28;20396;-49
2022/01/10 04:52:48;;;;;;;7.70;2.50;;;7.70;97.50;;;;;;5000756;28;20144;-49
2022/01/10 04:55:14;;;;;;;6.18;1.85;;;7.70;97.50;;;;;;5002196;28;20022;-49
2022/01/10 04:57:41;;;;;;;4.43;2.05;;;7.70;97.40;;;;;;5002058;28;20194;-49
2022/01/10 05:00:09;;;;;;;3.97;2.08;;;7.70;97.40;;;;;;5004214;28;20032;-49
2022/01/10 05:02:34;;;;;;;5.35;2.20;;;7.70;97.50;;;;;;5001491;28;20474;-49
2022/01/10 05:05:00;;;;;;;4.63;2.22;;;7.70;97.50;;;;;;5001724;28;20441;-50
2022/01/10 05:07:26;;;;;;;3.75;1.88;;;7.70;97.40;;;;;;5001515;28;20120;-49
2022/01/10 05:09:51;;;;;;;2.78;2.00;;;7.70;97.50;;;;;;5000094;28;20033;-49
2022/01/10 05:12:17;;;;;;;12.70;2.63;;;7.70;97.40;;;;;;5003327;28;20460;-49
2022/01/10 05:14:43;;;;;;;9.70;2.22;;;7.70;97.50;;;;;;4999698;28;20022;-49
2022/01/10 05:17:10;;;;;;;3.03;2.03;;;7.70;97.50;;;;;;5005046;28;20042;-49
2022/01/10 05:19:36;;;;;;;5.68;2.35;;;7.70;97.50;;;;;;5005745;28;20099;-49
2022/01/10 05:22:02;;;;;;;4.38;3.15;;;7.70;97.50;;;;;;5003117;28;20038;-49
2022/01/10 05:24:28;;;;;;;5.47;2.13;;;7.70;97.50;;;;;;5005817;28;20095;-50
2022/01/10 05:26:53;;;;;;;13.40;3.95;;;7.70;97.50;;;;;;5003592;28;20104;-49
2022/01/10 05:29:19;;;;;;;14.23;6.10;;;7.70;97.50;;;;;;5001556;28;20438;-49
2022/01/10 05:31:44;;;;;;;9.20;4.57;;;7.70;97.50;;;;;;5002949;28;20034;-49
2022/01/10 05:34:10;;;;;;;10.15;4.18;;;7.70;97.50;;;;;;5002916;28;20568;-49
2022/01/10 05:36:36;;;;;;;6.25;3.35;;;7.70;97.50;;;;;;5002088;28;20031;-49
2022/01/10 05:39:03;;;;;;;6.65;2.90;;;7.70;97.50;;;;;;5001088;28;20105;-49
2022/01/10 05:41:28;;;;;;;5.55;2.75;;;7.70;97.50;;;;;;4999035;28;20028;-49
2022/01/10 05:43:55;;;;;;;7.40;2.83;;;7.70;97.50;;;;;;5006891;28;20038;-49
2022/01/10 05:46:21;;;;;;;12.00;3.42;;;7.70;97.50;;;;;;5002339;28;20444;-49
2022/01/10 05:48:49;;;;;;;3.65;2.70;;;7.70;97.50;;;;;;5005942;28;20084;-49
2022/01/10 05:51:18;;;;;;;4.78;2.58;;;7.70;97.50;;;;;;5005609;28;20283;-49
2022/01/10 05:53:44;;;;;;;8.52;2.42;;;7.70;97.50;;;;;;5001287;28;20536;-49
2022/01/10 05:56:09;;;;;;;8.20;3.10;;;7.70;97.50;;;;;;5007360;28;20124;-49
2022/01/10 05:58:35;;;;;;;5.88;2.97;;;7.70;97.50;;;;;;5002443;28;20049;-49
2022/01/10 06:01:00;;;;;;;5.03;2.70;;;7.70;97.90;;;;;;5001375;28;20041;-50
2022/01/10 06:03:26;;;;;;;7.75;2.85;;;7.70;97.50;;;;;;5003272;28;20064;-49
2022/01/10 06:05:52;;;;;;;5.18;3.00;;;7.70;97.60;;;;;;5004334;28;20089;-49
2022/01/10 06:08:17;;;;;;;9.07;3.30;;;7.70;97.60;;;;;;5001558;28;20029;-50
2022/01/10 06:10:43;;;;;;;4.68;2.58;;;7.70;97.50;;;;;;5001005;28;20033;-49
2022/01/10 06:13:09;;;;;;;12.57;2.55;;;7.70;97.50;;;;;;5000794;28;20125;-49
2022/01/10 06:15:35;;;;;;;3.63;2.70;;;7.60;97.40;;;;;;5000742;28;20036;-49
2022/01/10 06:18:01;;;;;;;5.68;2.30;;;7.70;97.30;;;;;;5000772;28;20027;-49
2022/01/10 06:20:26;;;;;;;9.30;2.67;;;7.70;97.30;;;;;;5000105;28;20034;-49
2022/01/10 06:22:52;;;;;;;5.75;2.65;;;7.70;97.30;;;;;;5003909;28;20038;-49
2022/01/10 06:25:21;;;;;;;6.70;3.10;;;7.70;97.30;;;;;;5003138;28;20068;-49
2022/01/10 06:27:47;;;;;;;8.80;5.45;;;7.70;97.30;;;;;;4999715;28;20030;-49
2022/01/10 06:30:13;;;;;;;6.07;3.22;;;7.70;97.30;;;;;;5001320;28;20033;-49
2022/01/10 06:32:39;;;;;;;11.57;4.00;;;7.70;97.30;;;;;;5001360;28;20041;-49
2022/01/10 06:35:05;;;;;;;8.07;3.35;;;7.70;97.40;;;;;;5000350;28;20095;-49
2022/01/10 06:37:31;;;;;;;12.45;2.45;;;7.70;97.40;;;;;;5000480;28;20041;-49
2022/01/10 06:39:56;;;;;;;5.47;2.78;;;7.70;97.40;;;;;;5002440;28;20022;-49
2022/01/10 06:42:22;;;;;;;11.18;3.50;;;7.70;97.40;;;;;;4999042;28;20045;-49
2022/01/10 06:44:48;;;;;;;5.25;3.17;;;7.70;97.40;;;;;;5000576;28;20104;-49
2022/01/10 06:47:13;;;;;;;10.90;3.72;;;7.70;97.40;;;;;;5002158;28;20021;-49
2022/01/10 06:49:39;;;;;;;12.23;4.30;;;7.70;97.40;;;;;;5000675;28;20109;-49
2022/01/10 06:52:05;;;;;;;7.68;4.07;;;7.70;97.40;;;;;;5000866;28;20029;-49
2022/01/10 06:54:30;;;;;;;7.75;3.83;;;7.70;97.40;;;;;;5000094;28;20396;-49
2022/01/10 06:56:59;;;;;;;5.78;2.95;;;7.70;97.50;;;;;;5001202;28;20561;-49
2022/01/10 06:59:26;;;;;;;9.68;3.00;;;7.70;97.50;;;;;;5002436;28;20037;-49
2022/01/10 07:01:53;;;;;;;3.95;2.85;;;7.70;97.50;;;;;;4999137;28;20304;-49
2022/01/10 07:04:19;;;;;;;5.60;3.05;;;7.70;97.50;;;;;;5000384;28;20023;-49
2022/01/10 07:06:45;;;;;;;7.55;3.30;;;7.70;97.50;;;;;;5001659;28;20041;-49
2022/01/10 07:09:11;;;;;;;7.05;3.95;;;7.70;97.50;;;;;;5000532;28;20050;-49
2022/01/10 07:11:36;;;;;;;6.18;3.15;;;7.70;97.60;;;;;;4999155;28;20053;-49
2022/01/10 07:14:03;;;;;;;13.43;4.28;;;7.70;97.50;;;;;;5001805;28;20030;-49
2022/01/10 07:16:29;;;;;;;7.20;2.80;;;7.70;97.60;;;;;;5000630;28;20022;-49
2022/01/10 07:18:54;;;;;;;13.15;3.70;;;7.70;97.60;;;;;;4999307;28;20089;-49
2022/01/10 07:21:20;;;;;;;13.10;4.28;;;7.70;97.60;;;;;;4998623;28;20030;-48
2022/01/10 07:23:46;;;;;;;8.52;4.07;;;7.70;97.60;;;;;;5000828;28;20404;-49
2022/01/10 07:26:11;;;;;;;9.18;3.13;;;7.70;97.60;;;;;;5001748;28;20037;-49
2022/01/10 07:28:37;;;;;;;9.77;3.25;;;7.70;97.60;;;;;;4999473;28;20221;-49
2022/01/10 07:31:03;;;;;;;6.07;3.08;;;7.70;97.60;;;;;;5001052;28;20069;-49
2022/01/10 07:33:28;;;;;;;4.50;2.75;;;7.70;97.60;;;;;;5000773;28;20038;-49
2022/01/10 07:35:54;;;;;;;6.55;3.53;;;7.70;97.60;;;;;;4999827;28;20117;-49
2022/01/10 07:38:20;;;;;;;7.60;3.67;;;7.70;97.60;;;;;;5000861;28;20110;-49
2022/01/10 07:40:45;;;;;;;9.98;2.90;;;7.70;97.60;;;;;;4999183;28;20034;-49
2022/01/10 07:43:11;;;;;;;6.90;3.25;;;7.70;97.60;;;;;;5000876;28;20030;-49
2022/01/10 07:45:37;;;;;;;11.95;3.78;;;7.70;97.60;;;;;;5001347;28;20037;-49
2022/01/10 07:48:03;;;;;;;5.22;3.20;;;7.70;97.70;;;;;;5000022;28;20023;-49
2022/01/10 07:50:29;;;;;;;9.55;3.00;;;7.70;97.60;;;;;;5003768;28;20037;-49
2022/01/10 07:52:55;;;;;;;7.00;3.58;;;7.70;97.60;;;;;;5004113;28;20357;-49
2022/01/10 07:55:20;;;;;;;12.98;3.75;;;7.70;97.70;;;;;;5002456;28;20026;-49
2022/01/10 07:57:46;;;;;;;7.28;4.15;;;7.70;97.60;;;;;;5004023;28;20053;-50
2022/01/10 08:00:12;;;;;;;14.45;3.95;;;7.70;97.70;;;;;;5005040;28;20057;-49
2022/01/10 08:02:38;;;;;;;10.20;3.22;;;7.70;97.70;;;;;;5001549;28;20283;-49
2022/01/10 08:05:05;;;;;;;6.65;3.28;;;7.70;97.70;;;;;;5004328;28;20022;-49
2022/01/10 08:07:30;;;;;;;7.75;3.05;;;7.70;97.70;;;;;;5001647;28;20472;-49
2022/01/10 08:09:56;;;;;;;13.23;4.57;;;7.70;97.70;;;;;;5004587;28;20033;-49
2022/01/10 08:12:21;;;;;;;12.90;4.15;;;7.70;97.70;;;;;;5003274;28;20027;-48
2022/01/10 08:14:48;;;;;;;9.35;4.90;;;7.70;97.70;;;;;;5002431;28;20349;-49
2022/01/10 08:17:14;;;;;;;12.25;4.03;;;7.70;97.70;;;;;;5004614;28;20289;-49
2022/01/10 08:19:40;;;;;;;8.93;4.15;;;7.70;97.70;;;;;;5004400;28;20329;-49
2022/01/10 08:22:06;;;;;;;11.93;4.55;;;7.70;97.70;;;;;;5000653;28;20452;-49
2022/01/10 08:24:33;;;;;;;7.43;4.07;;;7.70;97.80;;;;;;5003030;28;20413;-49
2022/01/10 08:26:58;;;;;;;11.48;4.32;;;7.70;97.70;;;;;;5002341;28;20365;-49
2022/01/10 08:29:24;;;;;;;8.02;3.80;;;7.70;97.80;;;;;;5004847;28;20030;-49
2022/01/10 08:31:50;;;;;;;5.95;3.60;;;7.70;97.80;;;;;;5002421;28;20041;-49
2022/01/10 08:34:16;;;;;;;7.97;3.55;;;7.70;97.80;;;;;;5002160;28;20027;-49
2022/01/10 08:36:42;;;;;;;16.17;3.80;;;7.70;97.70;;;;;;5003717;28;20037;-49
2022/01/10 08:39:09;;;;;;;15.40;3.97;;;7.70;97.80;;;;;;5003379;28;20105;-49
2022/01/10 08:41:37;;;;;;;15.85;4.53;;;7.70;97.80;;;;;;5001531;28;20034;-49
2022/01/10 08:44:06;;;;;;;10.38;3.22;;;7.70;97.80;;;;;;5004044;28;20105;-49
2022/01/10 08:46:33;;;;;;;13.10;4.00;;;7.70;97.80;;;;;;5003809;28;20491;-49
2022/01/10 08:48:59;;;;;;;11.65;4.15;;;7.70;97.80;;;;;;5001872;28;20172;-49
2022/01/10 08:51:25;;;;;;;9.48;3.53;;;7.70;97.80;;;;;;5001309;28;20033;-49
2022/01/10 08:53:51;;;;;;;7.70;3.85;;;7.70;97.80;;;;;;5001425;28;20034;-49
2022/01/10 08:56:17;;;;;;;8.32;3.42;;;7.70;97.80;;;;;;5003998;28;20363;-49
2022/01/10 08:58:42;;;;;;;7.20;4.15;;;7.70;97.80;;;;;;5002289;28;20455;-49
2022/01/10 09:01:08;;;;;;;9.27;3.38;;;7.70;97.80;;;;;;5001202;28;20074;-49
2022/01/10 09:03:35;;;;;;;11.73;3.35;;;7.70;97.80;;;;;;5004487;28;20354;-49
2022/01/10 09:06:01;;;;;;;7.38;4.22;;;7.70;97.80;;;;;;5001842;28;20396;-49
2022/01/10 09:08:31;;;;;;;5.18;3.35;;;7.70;97.90;;;;;;5003322;28;20543;-49
2022/01/10 09:10:57;;;;;;;12.02;3.58;;;7.70;97.80;;;;;;5003318;28;20030;-49
2022/01/10 09:13:23;;;;;;;6.05;2.95;;;7.70;97.90;;;;;;5000642;28;20041;-49
2022/01/10 09:15:49;;;;;;;6.60;3.28;;;7.80;98.00;;;;;;5003281;28;20022;-49
2022/01/10 09:18:16;;;;;;;11.10;4.43;;;7.80;98.00;;;;;;5003198;28;20030;-49
2022/01/10 09:20:43;;;;;;;8.15;3.92;;;7.70;97.90;;;;;;5001156;28;20026;-49
2022/01/10 09:23:09;;;;;;;11.85;4.72;;;7.70;97.90;;;;;;5000463;28;20040;-49
2022/01/10 09:25:34;;;;;;;17.80;4.47;;;7.70;97.90;;;;;;5003323;28;20022;-49
2022/01/10 09:28:00;;;;;;;16.65;4.13;;;7.80;98.00;;;;;;5001192;28;20031;-49
2022/01/10 09:30:26;;;;;;;7.88;3.58;;;7.80;97.90;;;;;;5002268;28;20018;-49
2022/01/10 09:32:53;;;;;;;10.30;3.95;;;7.80;98.00;;;;;;5002566;28;20084;-49
2022/01/10 09:35:19;;;;;;;17.52;4.60;;;7.80;98.00;;;;;;5000906;28;20450;-49
2022/01/10 09:37:45;;;;;;;10.70;4.22;;;7.80;98.10;;;;;;5000919;28;20045;-50
2022/01/10 09:40:12;;;;;;;10.10;4.60;;;7.80;98.00;;;;;;5000838;28;20080;-49
2022/01/10 09:42:38;;;;;;;13.95;3.83;;;7.80;98.10;;;;;;5001938;28;20025;-49
2022/01/10 09:45:05;;;;;;;12.55;3.78;;;7.80;98.10;;;;;;5002625;28;20026;-49
2022/01/10 09:47:31;;;;;;;8.45;4.20;;;7.80;98.10;;;;;;5000630;28;20035;-49
2022/01/10 09:49:57;;;;;;;8.20;4.47;;;7.80;98.10;;;;;;5001563;28;20045;-49
2022/01/10 09:52:23;;;;;;;11.23;4.57;;;7.80;98.10;;;;;;4999363;28;20050;-49
2022/01/10 09:54:50;;;;;;;24.08;5.38;;;7.80;98.10;;;;;;5000647;28;20037;-49
2022/01/10 09:57:16;;;;;;;10.35;4.07;;;7.80;98.10;;;;;;5001827;28;20026;-49
2022/01/10 09:59:43;;;;;;;9.00;4.15;;;7.80;98.10;;;;;;5003116;28;20040;-49
2022/01/10 10:02:10;;;;;;;11.75;3.95;;;7.80;98.10;;;;;;5000147;28;20037;-49
2022/01/10 10:04:37;;;;;;;11.38;4.13;;;7.80;98.20;;;;;;5000465;28;20078;-49
2022/01/10 10:07:06;;;;;;;14.57;4.47;;;7.80;98.20;;;;;;5002736;28;20036;-49
2022/01/10 10:09:32;;;;;;;12.50;4.60;;;7.80;98.20;;;;;;5001805;28;20033;-49
2022/01/10 10:11:58;;;;;;;14.98;4.35;;;7.80;98.10;;;;;;4999163;28;20058;-49
2022/01/10 10:14:24;;;;;;;13.23;4.20;;;7.80;98.10;;;;;;5002515;28;20072;-49
2022/01/10 10:16:52;;;;;;;11.70;5.10;;;7.90;98.20;;;;;;5002341;28;20456;-49
2022/01/10 10:19:24;;;;;;;19.27;5.63;;;7.90;98.20;;;;;;4999957;28;20030;-49
2022/01/10 10:21:51;;;;;;;9.93;4.80;;;7.80;98.20;;;;;;4999945;28;20164;-49
2022/01/10 10:24:18;;;;;;;10.32;5.13;;;7.80;98.30;;;;;;5002674;28;20129;-49
2022/01/10 10:26:43;;;;;;;10.95;4.43;;;7.90;98.20;;;;;;5000439;28;20026;-49
2022/01/10 10:29:13;;;;;;;12.52;4.32;;;7.90;98.30;;;;;;5000487;28;20193;-49
2022/01/10 10:31:46;;;;;;;15.70;4.93;;;7.90;98.30;;;;;;4999521;28;20038;-49
2022/01/10 10:34:17;;;;;;;16.15;5.07;;;7.90;98.30;;;;;;5000022;28;20026;-49
2022/01/10 10:36:43;;;;;;;9.63;3.97;;;7.90;98.30;;;;;;5000855;28;20038;-49
2022/01/10 10:39:10;;;;;;;19.45;4.95;;;7.90;98.40;;;;;;5002901;28;20326;-49
2022/01/10 10:41:38;;;;;;;8.70;4.78;;;7.90;98.30;;;;;;4999227;28;20031;-49
2022/01/10 10:44:04;;;;;;;7.90;4.28;;;7.90;98.30;;;;;;5000823;28;20045;-49
2022/01/10 10:46:30;;;;;;;12.15;4.55;;;7.90;98.40;;;;;;5001902;28;20121;-49
2022/01/10 10:49:03;;;;;;;11.80;5.35;;;7.90;98.40;;;;;;5000941;28;20101;-49
2022/01/10 10:51:32;;;;;;;19.30;4.97;;;7.90;98.40;;;;;;4998661;28;20117;-49
2022/01/10 10:54:05;;;;;;;12.68;4.10;;;8.00;98.40;;;;;;5002167;28;20038;-49
2022/01/10 10:56:36;;;;;;;10.13;4.50;;;8.00;98.40;;;;;;4999691;28;20029;-49
2022/01/10 10:59:04;;;;;;;12.98;4.45;;;8.00;98.40;;;;;;5000315;28;20393;-49
2022/01/10 11:01:29;;;;;;;9.30;4.25;;;8.00;98.50;;;;;;5001407;28;20333;-49
2022/01/10 11:03:55;;;;;;;14.50;5.35;;;8.00;98.50;;;;;;5000646;28;20027;-50
2022/01/10 11:06:21;;;;;;;17.25;5.25;;;8.00;98.50;;;;;;4999768;28;20417;-49
2022/01/10 11:08:48;;;;;;;18.25;4.53;;;8.00;98.50;;;;;;5001500;28;20352;-49
2022/01/10 11:11:23;;;;;;;16.30;5.57;;;8.00;98.50;;;;;;5000180;28;20093;-49
2022/01/10 11:13:51;;;;;;;13.68;5.22;;;8.00;98.60;;;;;;4999646;28;20461;-49
2022/01/10 11:16:17;;;;;;;8.85;3.80;;;8.00;98.60;;;;;;5000588;28;20038;-49
2022/01/10 11:18:44;;;;;;;7.40;4.32;;;8.00;98.60;;;;;;5002115;28;20026;-49
2022/01/10 11:21:11;;;;;;;9.50;4.80;;;8.00;98.60;;;;;;5000064;28;20097;-49
2022/01/10 11:23:43;;;;;;;8.75;3.80;;;8.10;99.00;;;;;;5002169;28;20041;-49
2022/01/10 11:26:09;;;;;;;8.07;3.92;;;8.00;98.60;;;;;;5003748;28;20061;-49
2022/01/10 11:28:49;;;;;;;14.00;5.95;;;8.00;98.50;;;;;;5004187;28;20350;-49
2022/01/10 11:31:19;;;;;;;;;;;8.00;98.60;;;;;;5004471;28;20026;-49
2022/01/10 11:33:46;;;;;;;12.05;5.18;;;8.10;98.70;;;;;;5003175;28;20387;-49
2022/01/10 11:36:13;;;;;;;11.05;5.35;;;8.10;98.70;;;;;;5004336;28;20123;-49
2022/01/10 11:38:49;;;;;;;9.25;5.25;;;8.10;98.60;;;;;;5004957;28;20205;-49
2022/01/10 11:41:18;;;;;;;24.02;6.22;;;8.10;98.70;;;;;;5004378;28;20072;-49
2022/01/10 11:44:06;;;;;;;10.55;5.00;;;8.10;98.60;;;;;;5003562;28;20108;-49
2022/01/10 11:46:49;;;;;;;14.98;5.38;;;8.10;98.70;;;;;;5003519;28;20038;-49
2022/01/10 11:49:16;;;;;;;14.25;6.22;;;8.10;98.70;;;;;;5003316;28;20049;-49
2022/01/10 11:51:50;;;;;;;21.08;5.63;;;8.10;98.80;;;;;;5002981;28;20058;-49
2022/01/10 11:54:22;;;;;;;21.15;5.95;;;8.10;98.70;;;;;;5001866;28;20121;-49
2022/01/10 11:57:18;;;;;;;31.80;6.70;;;8.10;98.80;;;;;;5005585;28;20054;-49
2022/01/10 11:59:53;;;;;;;12.15;5.72;;;8.10;98.80;;;;;;5003323;28;20414;-49
2022/01/10 12:02:21;;;;;;;12.88;6.90;;;8.10;98.80;;;;;;5002414;28;20030;-49
2022/01/10 12:04:49;;;;;;;14.68;6.55;;;8.10;98.80;;;;;;5003613;28;20027;-49
2022/01/10 12:07:17;;;;;;;12.80;5.75;;;8.10;98.70;;;;;;5002694;28;20019;-49
2022/01/10 12:09:45;;;;;;;15.32;6.57;;;8.10;98.70;;;;;;5002480;28;20117;-49
2022/01/10 12:12:13;;;;;;;17.20;7.03;;;8.10;98.70;;;;;;5002005;28;20085;-49
2022/01/10 12:14:39;;;;;;;14.65;7.00;;;8.20;98.70;;;;;;5005058;28;20226;-49
2022/01/10 12:17:08;;;;;;;16.67;7.00;;;8.20;98.70;;;;;;5004117;28;20034;-49
2022/01/10 12:19:34;;;;;;;19.02;6.78;;;8.10;98.70;;;;;;5002578;28;20018;-49
2022/01/10 12:22:00;;;;;;;15.40;5.85;;;8.10;98.70;;;;;;5003357;28;20346;-49
2022/01/10 12:24:27;;;;;;;12.07;6.90;;;8.20;98.70;;;;;;5002242;28;20049;-49
2022/01/10 12:26:52;;;;;;;16.75;5.75;;;8.20;98.80;;;;;;5004705;28;20105;-49
2022/01/10 12:29:18;;;;;;;18.98;6.63;;;8.20;99.10;;;;;;5003620;28;20502;-49
2022/01/10 12:31:46;;;;;;;15.40;6.30;;;8.20;98.70;;;;;;5001523;28;20026;-49
2022/01/10 12:34:13;;;;;;;10.00;6.15;;;8.20;98.70;;;;;;5002265;28;20103;-49
2022/01/10 12:36:41;;;;;;;13.65;5.82;;;8.20;98.70;;;;;;5002403;28;20034;-49
2022/01/10 12:39:22;;;;;;;13.05;6.90;;;8.20;98.70;;;;;;5001489;28;20074;-49
2022/01/10 12:41:48;;;;;;;14.38;7.25;;;8.20;98.70;;;;;;5001379;28;20026;-49
2022/01/10 12:44:14;;;;;;;12.82;5.82;;;8.20;98.70;;;;;;5004338;28;20238;-49
2022/01/10 12:46:40;;;;;;;16.42;6.70;;;8.20;98.70;;;;;;5003421;28;20137;-49
2022/01/10 12:49:09;;;;;;;10.25;5.65;;;8.20;98.70;;;;;;5001884;28;20117;-49
2022/01/10 12:51:47;;;;;;;7.70;4.60;;;8.20;98.70;;;;;;5002661;28;20049;-49
2022/01/10 12:54:16;;;;;;;13.38;5.35;;;8.20;98.70;;;;;;5001536;28;20084;-49
2022/01/10 12:56:43;;;;;;;11.20;4.93;;;8.20;98.70;;;;;;5001514;28;20048;-50
2022/01/10 12:59:15;;;;;;;12.10;5.90;;;8.20;98.70;;;;;;5004382;28;20066;-49
2022/01/10 13:01:43;;;;;;;12.63;5.40;;;8.20;98.70;;;;;;5001222;28;20077;-49
2022/01/10 13:04:09;;;;;;;10.25;5.38;;;8.20;98.70;;;;;;5004364;28;20176;-49